sensor_id;sensor_type;location;lat;lon;timestamp;temperature;humidity
39325;DHT22;25037;49.488;9.900;2023-02-14T00:01:16;5.50;70.40
39325;DHT22;25037;49.488;9.900;2023-02-14T00:03:43;5.40;70.30
39325;DHT22;25037;49.488;9.900;2023-02-14T00:06:12;5.40;70.40
39325;DHT22;25037;49.488;9.900;2023-02-14T00:08:40;5.40;70.40
39325;DHT22;25037;49.488;9.900;2023-02-14T00:11:10;5.40;70.50
39325;DHT22;25037;49.488;9.900;2023-02-14T00:13:37;5.40;70.50
39325;DHT22;25037;49.488;9.900;2023-02-14T00:16:04;5.50;70.50
39325;DHT22;25037;49.488;9.900;2023-02-14T00:18:31;5.50;70.50
39325;DHT22;25037;49.488;9.900;2023-02-14T00:21:16;5.50;70.40
39325;DHT22;25037;49.488;9.900;2023-02-14T00:23:43;5.50;70.40
39325;DHT22;25037;49.488;9.900;2023-02-14T00:26:14;5.50;70.40
39325;DHT22;25037;49.488;9.900;2023-02-14T00:28:40;5.50;70.40
39325;DHT22;25037;49.488;9.900;2023-02-14T00:31:07;5.50;70.40
39325;DHT22;25037;49.488;9.900;2023-02-14T00:33:34;5.40;70.40
39325;DHT22;25037;49.488;9.900;2023-02-14T00:36:08;5.40;70.40
39325;DHT22;25037;49.488;9.900;2023-02-14T00:38:35;5.40;70.40
39325;DHT22;25037;49.488;9.900;2023-02-14T00:41:02;5.40;70.40
39325;DHT22;25037;49.488;9.900;2023-02-14T00:43:30;5.40;70.40
39325;DHT22;25037;49.488;9.900;2023-02-14T00:45:57;5.40;70.30
39325;DHT22;25037;49.488;9.900;2023-02-14T00:48:23;5.40;70.40
39325;DHT22;25037;49.488;9.900;2023-02-14T00:50:50;5.40;70.30
39325;DHT22;25037;49.488;9.900;2023-02-14T00:53:17;5.30;70.40
39325;DHT22;25037;49.488;9.900;2023-02-14T00:55:44;5.30;70.40
39325;DHT22;25037;49.488;9.900;2023-02-14T00:58:12;5.30;70.40
39325;DHT22;25037;49.488;9.900;2023-02-14T01:00:39;5.30;70.50
39325;DHT22;25037;49.488;9.900;2023-02-14T01:03:05;5.30;70.40
39325;DHT22;25037;49.488;9.900;2023-02-14T01:05:32;5.30;70.40
39325;DHT22;25037;49.488;9.900;2023-02-14T01:07:59;5.30;70.50
39325;DHT22;25037;49.488;9.900;2023-02-14T01:10:25;5.30;70.50
39325;DHT22;25037;49.488;9.900;2023-02-14T01:12:52;5.30;70.50
39325;DHT22;25037;49.488;9.900;2023-02-14T01:15:19;5.30;70.60
39325;DHT22;25037;49.488;9.900;2023-02-14T01:17:45;5.30;70.60
39325;DHT22;25037;49.488;9.900;2023-02-14T01:20:12;5.40;70.50
39325;DHT22;25037;49.488;9.900;2023-02-14T01:22:40;5.30;70.50
39325;DHT22;25037;49.488;9.900;2023-02-14T01:25:06;5.30;70.40
39325;DHT22;25037;49.488;9.900;2023-02-14T01:27:33;5.20;70.40
39325;DHT22;25037;49.488;9.900;2023-02-14T01:30:00;5.10;70.40
39325;DHT22;25037;49.488;9.900;2023-02-14T01:32:30;5.10;70.60
39325;DHT22;25037;49.488;9.900;2023-02-14T01:34:57;5.00;70.70
39325;DHT22;25037;49.488;9.900;2023-02-14T01:37:23;5.00;70.80
39325;DHT22;25037;49.488;9.900;2023-02-14T01:39:50;5.00;70.80
39325;DHT22;25037;49.488;9.900;2023-02-14T01:42:17;5.00;70.90
39325;DHT22;25037;49.488;9.900;2023-02-14T01:47:10;5.00;70.90
39325;DHT22;25037;49.488;9.900;2023-02-14T01:49:41;5.00;71.00
39325;DHT22;25037;49.488;9.900;2023-02-14T01:52:16;5.00;71.00
39325;DHT22;25037;49.488;9.900;2023-02-14T01:54:57;5.00;71.00
39325;DHT22;25037;49.488;9.900;2023-02-14T01:57:33;5.00;71.00
39325;DHT22;25037;49.488;9.900;2023-02-14T02:00:02;5.00;71.10
39325;DHT22;25037;49.488;9.900;2023-02-14T02:02:48;5.00;71.10
39325;DHT22;25037;49.488;9.900;2023-02-14T02:05:16;5.00;70.90
39325;DHT22;25037;49.488;9.900;2023-02-14T02:07:49;5.00;70.90
39325;DHT22;25037;49.488;9.900;2023-02-14T02:10:17;5.00;70.80
39325;DHT22;25037;49.488;9.900;2023-02-14T02:12:44;5.00;70.90
39325;DHT22;25037;49.488;9.900;2023-02-14T02:15:10;4.90;70.80
39325;DHT22;25037;49.488;9.900;2023-02-14T02:21:10;4.90;70.90
39325;DHT22;25037;49.488;9.900;2023-02-14T02:26:13;4.80;71.00
39325;DHT22;25037;49.488;9.900;2023-02-14T02:40:27;4.70;71.00
39325;DHT22;25037;49.488;9.900;2023-02-14T02:46:20;4.80;71.10
39325;DHT22;25037;49.488;9.900;2023-02-14T02:49:44;4.80;70.90
39325;DHT22;25037;49.488;9.900;2023-02-14T02:58:49;4.80;71.00
39325;DHT22;25037;49.488;9.900;2023-02-14T03:01:22;4.70;70.90
39325;DHT22;25037;49.488;9.900;2023-02-14T03:03:55;4.70;70.90
39325;DHT22;25037;49.488;9.900;2023-02-14T03:06:46;4.70;70.90
39325;DHT22;25037;49.488;9.900;2023-02-14T03:12:00;4.60;71.00
39325;DHT22;25037;49.488;9.900;2023-02-14T03:14:38;4.70;71.00
39325;DHT22;25037;49.488;9.900;2023-02-14T03:17:35;4.70;70.90
39325;DHT22;25037;49.488;9.900;2023-02-14T03:22:51;4.70;70.90
39325;DHT22;25037;49.488;9.900;2023-02-14T03:28:00;4.70;70.90
39325;DHT22;25037;49.488;9.900;2023-02-14T03:30:38;4.70;70.80
39325;DHT22;25037;49.488;9.900;2023-02-14T03:33:17;4.70;70.90
39325;DHT22;25037;49.488;9.900;2023-02-14T03:36:03;4.70;71.00
39325;DHT22;25037;49.488;9.900;2023-02-14T03:38:43;4.60;71.00
39325;DHT22;25037;49.488;9.900;2023-02-14T03:41:18;4.60;71.00
39325;DHT22;25037;49.488;9.900;2023-02-14T03:43:56;4.70;71.20
39325;DHT22;25037;49.488;9.900;2023-02-14T03:46:29;4.70;71.20
39325;DHT22;25037;49.488;9.900;2023-02-14T03:48:58;4.70;71.10
39325;DHT22;25037;49.488;9.900;2023-02-14T03:51:29;4.70;71.00
39325;DHT22;25037;49.488;9.900;2023-02-14T03:54:00;4.70;71.00
39325;DHT22;25037;49.488;9.900;2023-02-14T03:56:37;4.70;71.10
39325;DHT22;25037;49.488;9.900;2023-02-14T03:59:16;4.70;71.10
39325;DHT22;25037;49.488;9.900;2023-02-14T04:01:54;4.70;71.20
39325;DHT22;25037;49.488;9.900;2023-02-14T04:04:26;4.70;71.20
39325;DHT22;25037;49.488;9.900;2023-02-14T04:06:54;4.70;71.20
39325;DHT22;25037;49.488;9.900;2023-02-14T04:09:21;4.80;71.20
39325;DHT22;25037;49.488;9.900;2023-02-14T04:11:48;4.80;71.20
39325;DHT22;25037;49.488;9.900;2023-02-14T04:14:16;4.80;71.10
39325;DHT22;25037;49.488;9.900;2023-02-14T04:16:43;4.80;71.20
39325;DHT22;25037;49.488;9.900;2023-02-14T04:19:28;4.80;71.10
39325;DHT22;25037;49.488;9.900;2023-02-14T04:21:54;4.70;71.10
39325;DHT22;25037;49.488;9.900;2023-02-14T04:24:21;4.70;71.10
39325;DHT22;25037;49.488;9.900;2023-02-14T04:26:47;4.70;71.20
39325;DHT22;25037;49.488;9.900;2023-02-14T04:29:41;4.70;71.30
39325;DHT22;25037;49.488;9.900;2023-02-14T04:32:10;4.70;71.30
39325;DHT22;25037;49.488;9.900;2023-02-14T04:34:38;4.70;71.30
39325;DHT22;25037;49.488;9.900;2023-02-14T04:37:05;4.70;71.40
39325;DHT22;25037;49.488;9.900;2023-02-14T04:39:32;4.70;71.30
39325;DHT22;25037;49.488;9.900;2023-02-14T04:42:00;4.70;71.40
39325;DHT22;25037;49.488;9.900;2023-02-14T04:44:27;4.70;71.40
39325;DHT22;25037;49.488;9.900;2023-02-14T04:46:54;4.70;71.40
39325;DHT22;25037;49.488;9.900;2023-02-14T04:49:21;4.70;71.50
39325;DHT22;25037;49.488;9.900;2023-02-14T04:51:47;4.70;71.40
39325;DHT22;25037;49.488;9.900;2023-02-14T04:54:14;4.60;71.40
39325;DHT22;25037;49.488;9.900;2023-02-14T04:56:41;4.60;71.50
39325;DHT22;25037;49.488;9.900;2023-02-14T04:59:08;4.60;71.60
39325;DHT22;25037;49.488;9.900;2023-02-14T05:01:34;4.70;71.60
39325;DHT22;25037;49.488;9.900;2023-02-14T05:04:01;4.60;71.70
39325;DHT22;25037;49.488;9.900;2023-02-14T05:06:28;4.70;71.70
39325;DHT22;25037;49.488;9.900;2023-02-14T05:08:55;4.70;71.70
39325;DHT22;25037;49.488;9.900;2023-02-14T05:11:22;4.80;71.70
39325;DHT22;25037;49.488;9.900;2023-02-14T05:13:49;4.80;71.70
39325;DHT22;25037;49.488;9.900;2023-02-14T05:16:15;4.80;71.60
39325;DHT22;25037;49.488;9.900;2023-02-14T05:18:42;4.90;71.60
39325;DHT22;25037;49.488;9.900;2023-02-14T05:21:09;4.90;71.60
39325;DHT22;25037;49.488;9.900;2023-02-14T05:23:36;4.90;71.50
39325;DHT22;25037;49.488;9.900;2023-02-14T05:26:03;5.00;71.50
39325;DHT22;25037;49.488;9.900;2023-02-14T05:28:30;4.90;71.40
39325;DHT22;25037;49.488;9.900;2023-02-14T05:30:57;4.90;71.40
39325;DHT22;25037;49.488;9.900;2023-02-14T05:33:25;4.80;71.50
39325;DHT22;25037;49.488;9.900;2023-02-14T05:35:52;4.80;71.50
39325;DHT22;25037;49.488;9.900;2023-02-14T05:38:18;4.80;71.50
39325;DHT22;25037;49.488;9.900;2023-02-14T05:40:45;4.60;71.50
39325;DHT22;25037;49.488;9.900;2023-02-14T05:43:12;4.60;71.70
39325;DHT22;25037;49.488;9.900;2023-02-14T05:45:39;4.60;71.70
39325;DHT22;25037;49.488;9.900;2023-02-14T05:48:05;4.60;71.70
39325;DHT22;25037;49.488;9.900;2023-02-14T05:50:32;4.60;71.80
39325;DHT22;25037;49.488;9.900;2023-02-14T05:52:59;4.60;71.90
39325;DHT22;25037;49.488;9.900;2023-02-14T05:55:26;4.70;71.90
39325;DHT22;25037;49.488;9.900;2023-02-14T05:57:53;4.70;71.90
39325;DHT22;25037;49.488;9.900;2023-02-14T06:00:20;4.70;71.80
39325;DHT22;25037;49.488;9.900;2023-02-14T06:02:47;4.70;71.80
39325;DHT22;25037;49.488;9.900;2023-02-14T06:05:14;4.80;71.80
39325;DHT22;25037;49.488;9.900;2023-02-14T06:07:43;4.80;71.80
39325;DHT22;25037;49.488;9.900;2023-02-14T06:10:20;4.80;71.80
39325;DHT22;25037;49.488;9.900;2023-02-14T06:12:48;4.80;71.80
39325;DHT22;25037;49.488;9.900;2023-02-14T06:15:15;4.80;71.70
39325;DHT22;25037;49.488;9.900;2023-02-14T06:17:42;4.80;71.60
39325;DHT22;25037;49.488;9.900;2023-02-14T06:20:10;4.80;71.60
39325;DHT22;25037;49.488;9.900;2023-02-14T06:22:37;4.90;71.60
39325;DHT22;25037;49.488;9.900;2023-02-14T06:25:05;4.80;71.60
39325;DHT22;25037;49.488;9.900;2023-02-14T06:27:31;4.80;71.50
39325;DHT22;25037;49.488;9.900;2023-02-14T06:29:59;4.80;71.50
39325;DHT22;25037;49.488;9.900;2023-02-14T06:32:26;4.80;71.50
39325;DHT22;25037;49.488;9.900;2023-02-14T06:34:52;4.80;71.50
39325;DHT22;25037;49.488;9.900;2023-02-14T06:37:19;4.80;71.50
39325;DHT22;25037;49.488;9.900;2023-02-14T06:39:46;4.80;71.50
39325;DHT22;25037;49.488;9.900;2023-02-14T06:42:12;4.80;71.50
39325;DHT22;25037;49.488;9.900;2023-02-14T06:44:39;4.70;71.50
39325;DHT22;25037;49.488;9.900;2023-02-14T06:47:06;4.80;71.60
39325;DHT22;25037;49.488;9.900;2023-02-14T06:49:33;4.80;71.60
39325;DHT22;25037;49.488;9.900;2023-02-14T06:52:00;4.80;71.50
39325;DHT22;25037;49.488;9.900;2023-02-14T06:54:27;4.70;71.50
39325;DHT22;25037;49.488;9.900;2023-02-14T06:56:54;4.80;71.50
39325;DHT22;25037;49.488;9.900;2023-02-14T06:59:20;4.70;71.60
39325;DHT22;25037;49.488;9.900;2023-02-14T07:01:47;4.80;71.60
39325;DHT22;25037;49.488;9.900;2023-02-14T07:04:14;4.80;71.60
39325;DHT22;25037;49.488;9.900;2023-02-14T07:06:41;4.80;71.50
39325;DHT22;25037;49.488;9.900;2023-02-14T07:09:07;4.80;71.50
39325;DHT22;25037;49.488;9.900;2023-02-14T07:11:34;4.80;71.50
39325;DHT22;25037;49.488;9.900;2023-02-14T07:14:00;4.80;71.50
39325;DHT22;25037;49.488;9.900;2023-02-14T07:16:27;4.80;71.50
39325;DHT22;25037;49.488;9.900;2023-02-14T07:18:54;4.80;71.50
39325;DHT22;25037;49.488;9.900;2023-02-14T07:21:20;4.80;71.50
39325;DHT22;25037;49.488;9.900;2023-02-14T07:23:47;4.90;71.50
39325;DHT22;25037;49.488;9.900;2023-02-14T07:26:15;4.90;71.50
39325;DHT22;25037;49.488;9.900;2023-02-14T07:28:47;4.90;71.40
39325;DHT22;25037;49.488;9.900;2023-02-14T07:31:15;4.90;71.30
39325;DHT22;25037;49.488;9.900;2023-02-14T07:33:43;5.00;71.30
39325;DHT22;25037;49.488;9.900;2023-02-14T07:36:09;5.00;71.20
39325;DHT22;25037;49.488;9.900;2023-02-14T07:38:36;5.00;71.10
39325;DHT22;25037;49.488;9.900;2023-02-14T07:41:03;5.00;70.90
39325;DHT22;25037;49.488;9.900;2023-02-14T07:43:30;5.00;70.80
39325;DHT22;25037;49.488;9.900;2023-02-14T07:45:59;5.00;70.70
39325;DHT22;25037;49.488;9.900;2023-02-14T07:48:27;5.00;70.80
39325;DHT22;25037;49.488;9.900;2023-02-14T07:50:57;5.00;70.80
39325;DHT22;25037;49.488;9.900;2023-02-14T07:53:24;5.00;70.80
39325;DHT22;25037;49.488;9.900;2023-02-14T07:55:51;5.00;70.80
39325;DHT22;25037;49.488;9.900;2023-02-14T07:58:18;5.00;70.80
39325;DHT22;25037;49.488;9.900;2023-02-14T08:00:45;5.00;70.80
39325;DHT22;25037;49.488;9.900;2023-02-14T08:03:12;5.10;70.80
39325;DHT22;25037;49.488;9.900;2023-02-14T08:05:40;5.10;70.80
39325;DHT22;25037;49.488;9.900;2023-02-14T08:08:06;5.30;70.90
39325;DHT22;25037;49.488;9.900;2023-02-14T08:10:33;5.30;70.60
39325;DHT22;25037;49.488;9.900;2023-02-14T08:13:00;5.30;70.50
39325;DHT22;25037;49.488;9.900;2023-02-14T08:15:32;5.30;70.30
39325;DHT22;25037;49.488;9.900;2023-02-14T08:18:19;5.30;70.30
39325;DHT22;25037;49.488;9.900;2023-02-14T08:20:46;5.30;70.30
39325;DHT22;25037;49.488;9.900;2023-02-14T08:23:16;5.40;70.20
39325;DHT22;25037;49.488;9.900;2023-02-14T08:25:43;5.40;70.30
39325;DHT22;25037;49.488;9.900;2023-02-14T08:28:09;5.40;70.10
39325;DHT22;25037;49.488;9.900;2023-02-14T08:30:36;5.40;70.00
39325;DHT22;25037;49.488;9.900;2023-02-14T08:33:04;5.50;69.90
39325;DHT22;25037;49.488;9.900;2023-02-14T08:35:31;5.60;69.90
39325;DHT22;25037;49.488;9.900;2023-02-14T08:37:58;5.60;69.90
39325;DHT22;25037;49.488;9.900;2023-02-14T08:40:25;5.60;69.70
39325;DHT22;25037;49.488;9.900;2023-02-14T08:42:51;5.70;69.60
39325;DHT22;25037;49.488;9.900;2023-02-14T08:45:18;5.70;69.50
39325;DHT22;25037;49.488;9.900;2023-02-14T08:47:45;5.70;69.40
39325;DHT22;25037;49.488;9.900;2023-02-14T08:50:15;5.70;69.40
39325;DHT22;25037;49.488;9.900;2023-02-14T08:52:42;5.80;69.30
39325;DHT22;25037;49.488;9.900;2023-02-14T08:55:10;5.70;69.00
39325;DHT22;25037;49.488;9.900;2023-02-14T08:57:38;5.70;69.10
39325;DHT22;25037;49.488;9.900;2023-02-14T09:00:06;5.80;69.10
39325;DHT22;25037;49.488;9.900;2023-02-14T09:02:33;5.80;69.00
39325;DHT22;25037;49.488;9.900;2023-02-14T09:05:00;5.80;68.90
39325;DHT22;25037;49.488;9.900;2023-02-14T09:07:27;5.90;68.90
39325;DHT22;25037;49.488;9.900;2023-02-14T09:09:53;5.90;68.60
39325;DHT22;25037;49.488;9.900;2023-02-14T09:12:20;5.90;68.40
39325;DHT22;25037;49.488;9.900;2023-02-14T09:14:47;5.90;68.40
39325;DHT22;25037;49.488;9.900;2023-02-14T09:17:14;5.90;68.50
39325;DHT22;25037;49.488;9.900;2023-02-14T09:19:41;5.90;68.40
39325;DHT22;25037;49.488;9.900;2023-02-14T09:22:09;5.90;68.10
39325;DHT22;25037;49.488;9.900;2023-02-14T09:24:37;5.90;68.20
39325;DHT22;25037;49.488;9.900;2023-02-14T09:27:05;6.00;68.30
39325;DHT22;25037;49.488;9.900;2023-02-14T09:29:32;6.00;68.30
39325;DHT22;25037;49.488;9.900;2023-02-14T09:32:00;6.10;68.20
39325;DHT22;25037;49.488;9.900;2023-02-14T09:34:28;6.10;68.10
39325;DHT22;25037;49.488;9.900;2023-02-14T09:36:54;6.20;68.00
39325;DHT22;25037;49.488;9.900;2023-02-14T09:39:40;6.20;67.70
39325;DHT22;25037;49.488;9.900;2023-02-14T09:45:19;6.20;67.70
39325;DHT22;25037;49.488;9.900;2023-02-14T09:48:02;6.20;67.60
39325;DHT22;25037;49.488;9.900;2023-02-14T09:53:05;6.20;67.70
39325;DHT22;25037;49.488;9.900;2023-02-14T09:55:44;6.20;67.60
39325;DHT22;25037;49.488;9.900;2023-02-14T09:58:19;6.20;67.60
39325;DHT22;25037;49.488;9.900;2023-02-14T10:11:53;6.30;67.40
39325;DHT22;25037;49.488;9.900;2023-02-14T10:14:27;6.30;67.40
39325;DHT22;25037;49.488;9.900;2023-02-14T10:16:57;6.40;67.30
39325;DHT22;25037;49.488;9.900;2023-02-14T10:19:37;6.50;67.30
39325;DHT22;25037;49.488;9.900;2023-02-14T10:22:17;6.60;67.00
39325;DHT22;25037;49.488;9.900;2023-02-14T10:24:51;6.60;66.90
39325;DHT22;25037;49.488;9.900;2023-02-14T10:27:37;6.70;66.90
39325;DHT22;25037;49.488;9.900;2023-02-14T10:30:18;6.80;66.80
39325;DHT22;25037;49.488;9.900;2023-02-14T10:33:16;6.80;66.60
39325;DHT22;25037;49.488;9.900;2023-02-14T10:35:50;6.90;66.50
39325;DHT22;25037;49.488;9.900;2023-02-14T10:38:46;7.00;66.40
39325;DHT22;25037;49.488;9.900;2023-02-14T10:55:21;7.20;66.00
39325;DHT22;25037;49.488;9.900;2023-02-14T10:57:58;7.30;66.10
39325;DHT22;25037;49.488;9.900;2023-02-14T11:00:36;7.30;65.70
39325;DHT22;25037;49.488;9.900;2023-02-14T11:03:06;7.30;65.30
39325;DHT22;25037;49.488;9.900;2023-02-14T11:05:37;7.40;65.40
39325;DHT22;25037;49.488;9.900;2023-02-14T11:08:33;7.40;65.20
39325;DHT22;25037;49.488;9.900;2023-02-14T11:11:32;7.40;65.60
39325;DHT22;25037;49.488;9.900;2023-02-14T11:14:41;7.50;65.40
39325;DHT22;25037;49.488;9.900;2023-02-14T11:17:28;7.50;65.40
39325;DHT22;25037;49.488;9.900;2023-02-14T11:20:21;7.60;65.20
39325;DHT22;25037;49.488;9.900;2023-02-14T11:22:48;7.70;65.00
39325;DHT22;25037;49.488;9.900;2023-02-14T11:25:27;7.80;65.10
39325;DHT22;25037;49.488;9.900;2023-02-14T11:28:03;7.80;64.90
39325;DHT22;25037;49.488;9.900;2023-02-14T11:30:35;7.80;65.00
39325;DHT22;25037;49.488;9.900;2023-02-14T11:33:02;7.90;64.90
39325;DHT22;25037;49.488;9.900;2023-02-14T11:35:31;8.00;64.70
39325;DHT22;25037;49.488;9.900;2023-02-14T11:38:05;8.00;64.40
39325;DHT22;25037;49.488;9.900;2023-02-14T11:40:35;8.00;64.40
39325;DHT22;25037;49.488;9.900;2023-02-14T11:45:46;8.20;64.40
39325;DHT22;25037;49.488;9.900;2023-02-14T11:48:26;8.20;64.20
39325;DHT22;25037;49.488;9.900;2023-02-14T11:51:07;8.30;63.90
39325;DHT22;25037;49.488;9.900;2023-02-14T11:56:12;8.20;63.70
39325;DHT22;25037;49.488;9.900;2023-02-14T11:58:52;8.20;63.70
39325;DHT22;25037;49.488;9.900;2023-02-14T12:01:31;8.20;63.80
39325;DHT22;25037;49.488;9.900;2023-02-14T12:04:04;8.20;63.70
39325;DHT22;25037;49.488;9.900;2023-02-14T12:06:33;8.30;63.70
39325;DHT22;25037;49.488;9.900;2023-02-14T12:09:25;8.40;63.80
39325;DHT22;25037;49.488;9.900;2023-02-14T12:11:57;8.60;63.50
39325;DHT22;25037;49.488;9.900;2023-02-14T12:14:32;8.60;63.40
39325;DHT22;25037;49.488;9.900;2023-02-14T12:17:33;8.60;63.10
39325;DHT22;25037;49.488;9.900;2023-02-14T12:20:11;8.70;62.90
39325;DHT22;25037;49.488;9.900;2023-02-14T12:22:48;8.70;63.00
39325;DHT22;25037;49.488;9.900;2023-02-14T12:25:21;8.80;62.90
39325;DHT22;25037;49.488;9.900;2023-02-14T12:28:01;8.80;62.80
39325;DHT22;25037;49.488;9.900;2023-02-14T12:30:32;8.80;63.00
39325;DHT22;25037;49.488;9.900;2023-02-14T12:32:59;8.80;62.90
39325;DHT22;25037;49.488;9.900;2023-02-14T12:44:44;9.10;62.30
39325;DHT22;25037;49.488;9.900;2023-02-14T12:55:33;9.40;61.80
39325;DHT22;25037;49.488;9.900;2023-02-14T12:58:23;9.50;61.60
39325;DHT22;25037;49.488;9.900;2023-02-14T13:03:46;9.60;61.30
39325;DHT22;25037;49.488;9.900;2023-02-14T13:06:26;9.60;61.40
39325;DHT22;25037;49.488;9.900;2023-02-14T13:09:18;9.70;61.10
39325;DHT22;25037;49.488;9.900;2023-02-14T13:12:31;9.70;61.00
39325;DHT22;25037;49.488;9.900;2023-02-14T13:15:25;9.70;61.00
39325;DHT22;25037;49.488;9.900;2023-02-14T13:18:09;9.80;61.30
39325;DHT22;25037;49.488;9.900;2023-02-14T13:20:53;9.80;61.00
39325;DHT22;25037;49.488;9.900;2023-02-14T13:23:48;9.80;60.50
39325;DHT22;25037;49.488;9.900;2023-02-14T13:26:21;9.80;60.50
39325;DHT22;25037;49.488;9.900;2023-02-14T13:29:10;9.80;60.70
39325;DHT22;25037;49.488;9.900;2023-02-14T13:31:39;9.80;60.60
39325;DHT22;25037;49.488;9.900;2023-02-14T13:36:39;9.80;60.30
39325;DHT22;25037;49.488;9.900;2023-02-14T13:39:08;9.80;60.50
39325;DHT22;25037;49.488;9.900;2023-02-14T13:41:41;9.80;60.40
39325;DHT22;25037;49.488;9.900;2023-02-14T13:44:07;9.80;60.40
39325;DHT22;25037;49.488;9.900;2023-02-14T13:51:52;9.90;60.20
39325;DHT22;25037;49.488;9.900;2023-02-14T13:56:47;9.80;60.30
39325;DHT22;25037;49.488;9.900;2023-02-14T14:01:55;9.90;60.30
39325;DHT22;25037;49.488;9.900;2023-02-14T14:17:42;10.00;60.00
39325;DHT22;25037;49.488;9.900;2023-02-14T14:22:53;10.00;60.30
39325;DHT22;25037;49.488;9.900;2023-02-14T14:25:33;10.00;60.20
39325;DHT22;25037;49.488;9.900;2023-02-14T14:28:23;9.90;60.30
39325;DHT22;25037;49.488;9.900;2023-02-14T14:30:50;9.80;60.40
39325;DHT22;25037;49.488;9.900;2023-02-14T14:33:32;9.70;60.50
39325;DHT22;25037;49.488;9.900;2023-02-14T14:36:07;9.70;60.60
39325;DHT22;25037;49.488;9.900;2023-02-14T14:38:46;9.50;60.60
39325;DHT22;25037;49.488;9.900;2023-02-14T14:41:13;9.50;60.90
39325;DHT22;25037;49.488;9.900;2023-02-14T14:43:40;9.30;61.10
39325;DHT22;25037;49.488;9.900;2023-02-14T14:46:10;9.20;61.30
39325;DHT22;25037;49.488;9.900;2023-02-14T14:48:42;9.00;61.60
39325;DHT22;25037;49.488;9.900;2023-02-14T14:53:53;8.80;61.90
39325;DHT22;25037;49.488;9.900;2023-02-14T14:56:29;8.80;62.20
39325;DHT22;25037;49.488;9.900;2023-02-14T14:59:14;8.80;62.20
39325;DHT22;25037;49.488;9.900;2023-02-14T15:01:43;8.80;62.10
39325;DHT22;25037;49.488;9.900;2023-02-14T15:06:41;8.70;62.40
39325;DHT22;25037;49.488;9.900;2023-02-14T15:09:18;8.60;62.50
39325;DHT22;25037;49.488;9.900;2023-02-14T15:11:48;8.60;62.70
39325;DHT22;25037;49.488;9.900;2023-02-14T15:14:39;8.50;62.70
39325;DHT22;25037;49.488;9.900;2023-02-14T15:17:17;8.50;62.90
39325;DHT22;25037;49.488;9.900;2023-02-14T15:19:53;8.50;63.00
39325;DHT22;25037;49.488;9.900;2023-02-14T15:22:27;8.50;63.10
39325;DHT22;25037;49.488;9.900;2023-02-14T15:24:57;8.50;63.30
39325;DHT22;25037;49.488;9.900;2023-02-14T15:27:25;8.50;63.30
39325;DHT22;25037;49.488;9.900;2023-02-14T15:30:05;8.40;63.40
39325;DHT22;25037;49.488;9.900;2023-02-14T15:32:35;8.30;63.70
39325;DHT22;25037;49.488;9.900;2023-02-14T15:35:05;8.20;63.90
39325;DHT22;25037;49.488;9.900;2023-02-14T15:37:32;8.10;64.10
39325;DHT22;25037;49.488;9.900;2023-02-14T15:39:59;7.90;64.20
39325;DHT22;25037;49.488;9.900;2023-02-14T15:42:30;7.80;64.50
39325;DHT22;25037;49.488;9.900;2023-02-14T15:47:49;7.70;64.90
39325;DHT22;25037;49.488;9.900;2023-02-14T15:52:53;7.60;65.20
39325;DHT22;25037;49.488;9.900;2023-02-14T15:55:23;7.60;65.30
39325;DHT22;25037;49.488;9.900;2023-02-14T15:58:00;7.50;65.40
39325;DHT22;25037;49.488;9.900;2023-02-14T16:00:28;7.50;65.60
39325;DHT22;25037;49.488;9.900;2023-02-14T16:03:04;7.50;65.50
39325;DHT22;25037;49.488;9.900;2023-02-14T16:05:31;7.50;65.70
39325;DHT22;25037;49.488;9.900;2023-02-14T16:08:05;7.50;65.60
39325;DHT22;25037;49.488;9.900;2023-02-14T16:10:33;7.60;65.60
39325;DHT22;25037;49.488;9.900;2023-02-14T16:13:03;7.60;65.70
39325;DHT22;25037;49.488;9.900;2023-02-14T16:15:33;7.50;65.80
39325;DHT22;25037;49.488;9.900;2023-02-14T16:18:02;7.50;65.90
39325;DHT22;25037;49.488;9.900;2023-02-14T16:20:43;7.50;65.90
39325;DHT22;25037;49.488;9.900;2023-02-14T16:23:25;7.40;66.10
39325;DHT22;25037;49.488;9.900;2023-02-14T16:25:53;7.30;66.10
39325;DHT22;25037;49.488;9.900;2023-02-14T16:28:22;7.40;66.20
39325;DHT22;25037;49.488;9.900;2023-02-14T16:30:55;7.40;66.20
39325;DHT22;25037;49.488;9.900;2023-02-14T16:33:25;7.40;66.20
39325;DHT22;25037;49.488;9.900;2023-02-14T16:35:52;7.30;66.40
39325;DHT22;25037;49.488;9.900;2023-02-14T16:38:20;7.30;66.40
39325;DHT22;25037;49.488;9.900;2023-02-14T16:40:49;7.30;66.60
39325;DHT22;25037;49.488;9.900;2023-02-14T16:43:19;7.30;66.70
39325;DHT22;25037;49.488;9.900;2023-02-14T16:45:46;7.20;66.70
39325;DHT22;25037;49.488;9.900;2023-02-14T16:48:13;7.20;66.70
39325;DHT22;25037;49.488;9.900;2023-02-14T16:50:42;7.20;66.80
39325;DHT22;25037;49.488;9.900;2023-02-14T16:53:21;7.30;66.90
39325;DHT22;25037;49.488;9.900;2023-02-14T16:55:52;7.30;66.90
39325;DHT22;25037;49.488;9.900;2023-02-14T16:58:20;7.20;66.80
39325;DHT22;25037;49.488;9.900;2023-02-14T17:00:48;7.20;67.00
39325;DHT22;25037;49.488;9.900;2023-02-14T17:03:14;7.20;67.00
39325;DHT22;25037;49.488;9.900;2023-02-14T17:05:41;7.20;67.10
39325;DHT22;25037;49.488;9.900;2023-02-14T17:08:10;7.20;67.10
39325;DHT22;25037;49.488;9.900;2023-02-14T17:10:39;7.30;67.00
39325;DHT22;25037;49.488;9.900;2023-02-14T17:13:07;7.30;66.90
39325;DHT22;25037;49.488;9.900;2023-02-14T17:15:36;7.30;67.00
39325;DHT22;25037;49.488;9.900;2023-02-14T17:18:09;7.30;66.90
39325;DHT22;25037;49.488;9.900;2023-02-14T17:20:37;7.30;67.00
39325;DHT22;25037;49.488;9.900;2023-02-14T17:23:03;7.20;67.00
39325;DHT22;25037;49.488;9.900;2023-02-14T17:25:30;7.20;67.00
39325;DHT22;25037;49.488;9.900;2023-02-14T17:27:57;7.20;67.10
39325;DHT22;25037;49.488;9.900;2023-02-14T17:30:24;7.10;67.10
39325;DHT22;25037;49.488;9.900;2023-02-14T17:32:50;7.00;67.30
39325;DHT22;25037;49.488;9.900;2023-02-14T17:35:18;7.00;67.40
39325;DHT22;25037;49.488;9.900;2023-02-14T17:37:44;7.00;67.50
39325;DHT22;25037;49.488;9.900;2023-02-14T17:40:11;7.00;67.60
39325;DHT22;25037;49.488;9.900;2023-02-14T17:42:38;7.00;67.60
39325;DHT22;25037;49.488;9.900;2023-02-14T17:45:06;7.00;67.70
39325;DHT22;25037;49.488;9.900;2023-02-14T17:47:33;7.00;67.80
39325;DHT22;25037;49.488;9.900;2023-02-14T17:50:00;6.90;67.90
39325;DHT22;25037;49.488;9.900;2023-02-14T17:52:29;6.90;67.90
39325;DHT22;25037;49.488;9.900;2023-02-14T17:54:56;6.80;68.00
39325;DHT22;25037;49.488;9.900;2023-02-14T17:57:23;6.80;68.20
39325;DHT22;25037;49.488;9.900;2023-02-14T17:59:50;6.80;68.30
39325;DHT22;25037;49.488;9.900;2023-02-14T18:02:17;6.70;68.40
39325;DHT22;25037;49.488;9.900;2023-02-14T18:04:44;6.70;68.50
39325;DHT22;25037;49.488;9.900;2023-02-14T18:07:10;6.70;68.60
39325;DHT22;25037;49.488;9.900;2023-02-14T18:09:37;6.70;68.60
39325;DHT22;25037;49.488;9.900;2023-02-14T18:12:04;6.70;68.60
39325;DHT22;25037;49.488;9.900;2023-02-14T18:14:32;6.70;68.60
39325;DHT22;25037;49.488;9.900;2023-02-14T18:16:59;6.70;68.60
39325;DHT22;25037;49.488;9.900;2023-02-14T18:19:26;6.70;68.60
39325;DHT22;25037;49.488;9.900;2023-02-14T18:21:53;6.70;68.70
39325;DHT22;25037;49.488;9.900;2023-02-14T18:24:20;6.70;68.70